createdAt,value
2023-03-15T00:00:07.906Z,6.70
2023-03-15T00:02:36.007Z,6.60
2023-03-15T00:05:04.815Z,6.60
2023-03-15T00:07:32.965Z,6.60
2023-03-15T00:10:02.351Z,6.60
2023-03-15T00:12:30.129Z,6.60
2023-03-15T00:14:58.068Z,6.70
2023-03-15T00:17:25.927Z,6.60
2023-03-15T00:19:53.831Z,6.60
2023-03-15T00:22:23.343Z,6.40
2023-03-15T00:24:51.279Z,6.40
2023-03-15T00:27:20.761Z,6.50
2023-03-15T00:29:48.693Z,6.30
2023-03-15T00:32:16.465Z,6.40
2023-03-15T00:34:49.489Z,6.50
2023-03-15T00:37:21.809Z,6.40
2023-03-15T00:39:49.760Z,6.40
2023-03-15T00:42:17.679Z,6.40
2023-03-15T00:44:46.945Z,6.30
2023-03-15T00:47:15.957Z,6.50
2023-03-15T00:49:43.764Z,6.50
2023-03-15T00:52:12.517Z,6.40
2023-03-15T00:54:41.847Z,6.50
2023-03-15T00:57:09.784Z,6.50
2023-03-15T00:59:37.729Z,6.40
2023-03-15T01:02:07.845Z,6.30
2023-03-15T01:04:36.374Z,6.20
2023-03-15T01:07:04.458Z,6.40
2023-03-15T01:09:32.293Z,6.30
2023-03-15T01:12:00.328Z,6.30
2023-03-15T01:14:28.144Z,6.30
2023-03-15T01:16:56.025Z,6.40
2023-03-15T01:19:25.132Z,6.50
2023-03-15T01:21:53.254Z,6.30
2023-03-15T01:24:21.030Z,6.30
2023-03-15T01:26:48.810Z,6.50
2023-03-15T01:29:17.884Z,6.40
2023-03-15T01:31:45.750Z,6.50
2023-03-15T01:34:13.508Z,6.30
2023-03-15T01:36:42.595Z,6.50
2023-03-15T01:39:11.169Z,6.60
2023-03-15T01:41:39.212Z,6.80
2023-03-15T01:44:10.026Z,6.60
2023-03-15T01:46:38.067Z,6.80
2023-03-15T01:49:10.040Z,6.80
2023-03-15T01:51:43.918Z,6.80
2023-03-15T01:54:16.347Z,6.80
2023-03-15T01:56:49.135Z,6.90
2023-03-15T01:59:20.852Z,7.10
2023-03-15T02:01:49.445Z,6.90
2023-03-15T02:04:24.900Z,7.10
2023-03-15T02:06:59.182Z,7.10
2023-03-15T02:09:31.822Z,7.00
2023-03-15T02:12:00.636Z,7.00
2023-03-15T02:14:30.018Z,7.10
2023-03-15T02:16:57.749Z,7.20
2023-03-15T02:19:39.025Z,7.20
2023-03-15T02:22:17.284Z,7.10
2023-03-15T02:24:56.373Z,7.10
2023-03-15T02:27:29.885Z,7.20
2023-03-15T02:29:58.321Z,6.80
2023-03-15T02:32:26.206Z,7.00
2023-03-15T02:34:54.500Z,7.20
2023-03-15T02:37:22.474Z,7.20
2023-03-15T02:39:50.204Z,7.10
2023-03-15T02:42:19.330Z,6.80
2023-03-15T02:44:52.270Z,7.10
2023-03-15T02:47:23.778Z,7.10
2023-03-15T02:49:53.857Z,7.20
2023-03-15T02:52:22.398Z,7.30
2023-03-15T02:54:50.267Z,7.20
2023-03-15T02:57:19.679Z,6.90
2023-03-15T02:59:50.890Z,6.90
2023-03-15T03:02:19.782Z,7.20
2023-03-15T03:04:47.639Z,7.00
2023-03-15T03:07:15.421Z,7.10
2023-03-15T03:09:43.129Z,7.00
2023-03-15T03:12:11.271Z,7.10
2023-03-15T03:14:39.007Z,7.10
2023-03-15T03:17:08.439Z,7.10
2023-03-15T03:19:36.168Z,7.20
2023-03-15T03:22:04.126Z,7.30
2023-03-15T03:24:32.346Z,7.20
2023-03-15T03:27:00.148Z,7.20
2023-03-15T03:29:28.327Z,7.00
2023-03-15T03:31:56.253Z,7.20
2023-03-15T03:34:25.362Z,7.10
2023-03-15T03:36:53.440Z,7.10
2023-03-15T03:39:21.189Z,6.60
2023-03-15T03:41:49.122Z,6.90
2023-03-15T03:44:16.943Z,7.10
2023-03-15T03:46:44.880Z,7.00
2023-03-15T03:49:13.128Z,7.00
2023-03-15T03:51:42.287Z,6.90
2023-03-15T03:54:10.029Z,6.80
2023-03-15T03:56:37.917Z,6.80
2023-03-15T03:59:05.701Z,7.00
2023-03-15T04:01:33.628Z,6.90
2023-03-15T04:04:01.313Z,7.00
2023-03-15T04:06:29.101Z,6.80
2023-03-15T04:08:58.428Z,6.80
2023-03-15T04:11:27.052Z,6.70
2023-03-15T04:13:54.883Z,6.50
2023-03-15T04:16:24.727Z,6.70
2023-03-15T04:18:56.503Z,6.50
2023-03-15T04:21:24.365Z,6.80
2023-03-15T04:23:52.195Z,6.70
2023-03-15T04:26:21.369Z,6.70
2023-03-15T04:28:49.304Z,6.60
2023-03-15T04:31:17.107Z,6.70
2023-03-15T04:33:44.891Z,6.80
2023-03-15T04:36:19.898Z,6.90
2023-03-15T04:38:47.725Z,6.90
2023-03-15T04:41:15.895Z,7.00
2023-03-15T04:43:46.062Z,6.80
2023-03-15T04:46:13.950Z,6.90
2023-03-15T04:48:42.372Z,6.90
2023-03-15T04:51:10.345Z,7.10
2023-03-15T04:53:39.128Z,6.80
2023-03-15T04:56:07.488Z,7.00
2023-03-15T04:58:35.366Z,6.70
2023-03-15T05:01:04.949Z,6.90
2023-03-15T05:03:32.862Z,6.90
2023-03-15T05:06:08.048Z,6.50
2023-03-15T05:08:37.250Z,6.70
2023-03-15T05:11:05.325Z,6.90
2023-03-15T05:13:33.468Z,6.80
2023-03-15T05:16:01.489Z,6.80
2023-03-15T05:18:30.990Z,6.90
2023-03-15T05:20:58.946Z,7.00
2023-03-15T05:23:27.293Z,7.10
2023-03-15T05:25:56.706Z,7.10
2023-03-15T05:28:25.894Z,7.10
2023-03-15T05:30:54.444Z,6.90
2023-03-15T05:33:22.991Z,6.90
2023-03-15T05:35:56.055Z,6.80
2023-03-15T05:38:26.588Z,7.00
2023-03-15T05:40:54.765Z,7.00
2023-03-15T05:43:22.753Z,7.10
2023-03-15T05:45:50.792Z,7.00
2023-03-15T05:48:18.842Z,7.20
2023-03-15T05:50:46.801Z,7.20
2023-03-15T05:53:16.734Z,7.20
2023-03-15T05:55:44.659Z,7.20
2023-03-15T05:58:12.745Z,7.20
2023-03-15T06:00:41.235Z,7.20
2023-03-15T06:03:09.473Z,7.30
2023-03-15T06:05:37.362Z,7.30
2023-03-15T06:08:05.688Z,7.20
2023-03-15T06:10:35.477Z,6.70
2023-03-15T06:13:03.374Z,7.10
2023-03-15T06:15:31.118Z,7.30
2023-03-15T06:17:58.827Z,7.40
2023-03-15T06:20:26.706Z,7.20
2023-03-15T06:22:54.653Z,7.20
2023-03-15T06:25:22.480Z,7.10
2023-03-15T06:27:51.967Z,7.20
2023-03-15T06:30:20.501Z,7.20
2023-03-15T06:32:48.309Z,7.10
2023-03-15T06:35:16.328Z,7.20
2023-03-15T06:37:44.141Z,7.20
2023-03-15T06:40:13.908Z,7.30
2023-03-15T06:42:42.735Z,7.50
2023-03-15T06:45:13.219Z,7.40
2023-03-15T06:47:41.073Z,7.30
2023-03-15T06:50:10.157Z,7.30
2023-03-15T06:52:38.743Z,7.50
2023-03-15T06:55:07.947Z,7.50
2023-03-15T06:57:35.772Z,7.30
2023-03-15T07:00:07.137Z,7.50
2023-03-15T07:02:37.587Z,7.50
2023-03-15T07:05:05.955Z,7.60
2023-03-15T07:07:33.902Z,7.80
2023-03-15T07:10:01.731Z,7.90
2023-03-15T07:12:29.581Z,7.80
2023-03-15T07:14:57.514Z,7.90
2023-03-15T07:17:25.956Z,8.00
2023-03-15T07:19:56.825Z,8.10
2023-03-15T07:22:25.281Z,8.00
2023-03-15T07:24:53.425Z,8.00
2023-03-15T07:27:21.223Z,8.10
2023-03-15T07:29:49.979Z,8.10
2023-03-15T07:32:18.076Z,8.30
2023-03-15T07:34:46.142Z,8.20
2023-03-15T07:37:15.921Z,8.20
2023-03-15T07:39:44.053Z,8.10
2023-03-15T07:42:12.182Z,8.10
2023-03-15T07:44:40.007Z,8.00
2023-03-15T07:47:08.358Z,8.10
2023-03-15T07:49:36.149Z,8.00
2023-03-15T07:52:04.439Z,8.20
2023-03-15T07:54:34.347Z,8.30
2023-03-15T07:57:02.061Z,7.80
2023-03-15T07:59:29.847Z,8.20
2023-03-15T08:01:57.707Z,8.40
2023-03-15T08:04:25.752Z,8.50
2023-03-15T08:06:53.606Z,8.60
2023-03-15T08:09:21.385Z,9.10
2023-03-15T08:11:50.548Z,9.30
2023-03-15T08:14:18.439Z,9.70
2023-03-15T08:16:46.397Z,9.90
2023-03-15T08:19:14.192Z,9.80
2023-03-15T08:21:45.264Z,9.90
2023-03-15T08:24:13.215Z,9.70
2023-03-15T08:26:43.229Z,9.80
2023-03-15T08:29:12.301Z,9.70
2023-03-15T08:31:40.514Z,10.00
2023-03-15T08:34:08.481Z,10.00
2023-03-15T08:36:36.307Z,9.60
2023-03-15T08:39:05.514Z,9.90
2023-03-15T08:41:33.931Z,10.20
2023-03-15T08:44:02.067Z,10.00
2023-03-15T08:46:31.977Z,10.30
2023-03-15T08:48:59.820Z,10.40
2023-03-15T08:51:28.144Z,10.50
2023-03-15T08:53:57.007Z,11.10
2023-03-15T08:56:24.708Z,11.10
2023-03-15T08:58:52.527Z,10.40
2023-03-15T09:01:20.267Z,10.30
2023-03-15T09:03:50.636Z,10.40
2023-03-15T09:06:18.884Z,10.50
2023-03-15T09:08:46.645Z,10.70
2023-03-15T09:11:14.866Z,10.80
2023-03-15T09:13:42.659Z,10.40
2023-03-15T09:16:10.455Z,10.80
2023-03-15T09:18:40.631Z,11.10
2023-03-15T09:21:09.868Z,11.10
2023-03-15T09:23:41.044Z,11.10
2023-03-15T09:26:08.841Z,11.00
2023-03-15T09:28:36.648Z,10.80
2023-03-15T09:31:07.398Z,10.90
2023-03-15T09:33:35.271Z,10.60
2023-03-15T09:36:04.467Z,10.70
2023-03-15T09:38:33.681Z,10.80
2023-03-15T09:41:03.691Z,10.80
2023-03-15T09:43:56.001Z,10.30
2023-03-15T09:46:29.878Z,10.50
2023-03-15T09:49:05.195Z,10.30
2023-03-15T09:51:40.969Z,10.80
2023-03-15T09:54:13.864Z,11.00
2023-03-15T09:56:47.085Z,11.20
2023-03-15T09:59:17.630Z,11.40
2023-03-15T10:01:46.521Z,11.40
2023-03-15T10:04:23.895Z,11.10
2023-03-15T10:06:56.815Z,11.00
2023-03-15T10:09:27.990Z,11.10
2023-03-15T10:12:04.420Z,11.40
2023-03-15T10:14:48.005Z,11.50
2023-03-15T10:17:21.022Z,11.30
2023-03-15T10:19:51.242Z,11.30
2023-03-15T10:22:26.800Z,11.30
2023-03-15T10:25:00.522Z,11.70
2023-03-15T10:27:35.813Z,11.50
2023-03-15T10:30:10.604Z,11.70
2023-03-15T10:32:42.035Z,11.80
2023-03-15T10:35:16.282Z,11.60
2023-03-15T10:37:44.666Z,11.30
2023-03-15T10:40:16.952Z,11.60
2023-03-15T10:42:46.540Z,11.40
2023-03-15T10:45:24.812Z,11.50
2023-03-15T10:48:00.361Z,11.50
2023-03-15T10:50:31.122Z,11.30
2023-03-15T10:53:00.038Z,11.70
2023-03-15T10:55:33.880Z,11.50
2023-03-15T10:58:19.569Z,11.60
2023-03-15T11:00:51.913Z,11.50
2023-03-15T11:03:21.283Z,11.10
2023-03-15T11:05:51.450Z,11.10
2023-03-15T11:08:21.143Z,11.10
2023-03-15T11:10:57.539Z,11.30
2023-03-15T11:13:26.789Z,11.00
2023-03-15T11:16:03.767Z,11.00
2023-03-15T11:18:36.139Z,11.30
2023-03-15T11:21:08.346Z,11.60
2023-03-15T11:23:38.992Z,11.60
2023-03-15T11:26:12.301Z,11.70
2023-03-15T11:28:45.791Z,12.00
2023-03-15T11:31:13.981Z,12.10
2023-03-15T11:33:48.438Z,11.60
2023-03-15T11:36:20.102Z,11.80
2023-03-15T11:38:48.385Z,11.60
2023-03-15T11:41:26.658Z,11.50
2023-03-15T11:44:03.687Z,11.60
2023-03-15T11:46:35.620Z,11.30
2023-03-15T11:49:12.123Z,11.60
2023-03-15T11:51:40.867Z,11.80
2023-03-15T11:54:14.644Z,11.90
2023-03-15T11:56:58.955Z,11.60
2023-03-15T11:59:30.018Z,11.70
2023-03-15T12:02:01.003Z,11.70
2023-03-15T12:04:45.003Z,11.60
2023-03-15T12:07:40.759Z,11.70
2023-03-15T12:10:46.809Z,12.10
2023-03-15T12:13:25.950Z,12.20
2023-03-15T12:15:54.387Z,12.20
2023-03-15T12:18:27.875Z,12.30
2023-03-15T12:21:15.976Z,12.40
2023-03-15T12:23:50.333Z,12.80
2023-03-15T12:26:26.148Z,12.60
2023-03-15T12:29:06.770Z,12.50
2023-03-15T12:31:59.663Z,12.20
2023-03-15T12:34:38.278Z,11.90
2023-03-15T12:37:08.778Z,12.00
2023-03-15T12:39:48.805Z,12.00
2023-03-15T12:42:54.248Z,11.40
2023-03-15T12:45:45.652Z,11.50
2023-03-15T12:48:22.741Z,10.90
2023-03-15T12:50:53.745Z,10.70
2023-03-15T12:53:28.720Z,10.50
2023-03-15T12:56:07.982Z,10.60
2023-03-15T12:58:38.364Z,10.20
2023-03-15T13:01:09.041Z,10.10
2023-03-15T13:03:37.498Z,10.40
2023-03-15T13:06:12.959Z,10.70
2023-03-15T13:08:49.054Z,10.80
2023-03-15T13:11:25.755Z,10.20
2023-03-15T13:14:07.087Z,10.10
2023-03-15T13:16:40.121Z,9.80
2023-03-15T13:19:18.515Z,9.80
2023-03-15T13:22:12.974Z,9.30
2023-03-15T13:24:48.365Z,9.40
2023-03-15T13:27:29.330Z,9.50
2023-03-15T13:29:59.302Z,9.50
2023-03-15T13:32:28.496Z,9.70
2023-03-15T13:34:58.282Z,9.20
2023-03-15T13:37:29.038Z,9.60
2023-03-15T13:40:00.748Z,9.80
2023-03-15T13:42:29.514Z,9.90
2023-03-15T13:45:11.287Z,9.60
2023-03-15T13:47:41.430Z,9.10
2023-03-15T13:50:13.970Z,9.80
2023-03-15T13:52:42.773Z,9.90
2023-03-15T13:55:13.514Z,10.40
2023-03-15T13:57:41.781Z,10.40
2023-03-15T14:00:12.501Z,10.70
2023-03-15T14:02:49.446Z,10.60
2023-03-15T14:05:19.602Z,10.50
2023-03-15T14:07:49.659Z,10.60
2023-03-15T14:10:29.032Z,10.40
2023-03-15T14:12:57.852Z,10.60
2023-03-15T14:15:28.331Z,10.70
2023-03-15T14:18:02.457Z,10.70
2023-03-15T14:20:33.691Z,10.50
2023-03-15T14:23:03.272Z,10.80
2023-03-15T14:25:36.035Z,10.50
2023-03-15T14:28:05.980Z,10.90
2023-03-15T14:30:37.036Z,11.10
2023-03-15T14:33:08.849Z,11.00
2023-03-15T14:35:43.888Z,10.70
2023-03-15T14:38:18.877Z,10.70
2023-03-15T14:40:47.362Z,10.90
2023-03-15T14:43:15.166Z,11.00
2023-03-15T14:45:45.182Z,11.10
2023-03-15T14:48:17.675Z,11.50
2023-03-15T14:50:46.873Z,11.30
2023-03-15T14:53:23.448Z,11.50
2023-03-15T14:55:51.416Z,11.60
2023-03-15T14:58:20.820Z,11.70
2023-03-15T15:00:52.479Z,11.20
2023-03-15T15:03:31.223Z,11.00
2023-03-15T15:05:59.657Z,11.40
2023-03-15T15:08:28.221Z,11.60
2023-03-15T15:10:57.850Z,11.50
2023-03-15T15:13:28.242Z,11.50
2023-03-15T15:15:58.969Z,11.40
2023-03-15T15:18:30.099Z,11.50
2023-03-15T15:21:00.880Z,11.40
2023-03-15T15:23:30.712Z,11.40
2023-03-15T15:26:01.225Z,11.50
2023-03-15T15:28:35.939Z,11.60
2023-03-15T15:31:05.997Z,11.60
2023-03-15T15:33:35.306Z,11.90
2023-03-15T15:36:04.992Z,12.10
2023-03-15T15:38:38.403Z,11.80
2023-03-15T15:41:07.675Z,11.90
2023-03-15T15:43:35.530Z,11.20
2023-03-15T15:46:03.493Z,11.90
2023-03-15T15:48:31.347Z,11.70
2023-03-15T15:51:00.982Z,11.70
2023-03-15T15:53:33.685Z,12.00
2023-03-15T15:56:01.525Z,11.60
2023-03-15T15:58:29.512Z,11.70
2023-03-15T16:00:57.292Z,11.70
2023-03-15T16:03:26.017Z,12.00
2023-03-15T16:05:53.872Z,11.80
2023-03-15T16:08:25.577Z,11.60
2023-03-15T16:10:53.506Z,11.60
2023-03-15T16:13:21.265Z,11.60
2023-03-15T16:15:49.056Z,11.80
2023-03-15T16:18:16.821Z,11.80
2023-03-15T16:20:44.699Z,11.80
2023-03-15T16:23:20.445Z,11.90
2023-03-15T16:25:52.069Z,12.10
2023-03-15T16:28:20.127Z,12.20
2023-03-15T16:30:48.237Z,12.00
2023-03-15T16:33:19.030Z,12.00
2023-03-15T16:35:49.936Z,11.90
2023-03-15T16:38:24.090Z,11.60
2023-03-15T16:40:54.177Z,11.60
2023-03-15T16:43:22.165Z,11.50
2023-03-15T16:45:50.660Z,11.70
2023-03-15T16:48:18.543Z,11.60
2023-03-15T16:50:48.181Z,11.80
2023-03-15T16:53:16.482Z,11.60
2023-03-15T16:55:44.391Z,11.70
2023-03-15T16:58:18.292Z,11.50
2023-03-15T17:00:48.136Z,11.30
2023-03-15T17:03:17.619Z,11.50
2023-03-15T17:05:47.527Z,11.50
2023-03-15T17:08:20.011Z,11.40
2023-03-15T17:10:49.363Z,11.10
2023-03-15T17:13:24.524Z,11.30
2023-03-15T17:15:52.589Z,11.40
2023-03-15T17:18:21.912Z,11.50
2023-03-15T17:20:50.985Z,11.50
2023-03-15T17:23:20.958Z,11.50
2023-03-15T17:25:49.972Z,11.50
2023-03-15T17:28:19.151Z,11.60
2023-03-15T17:30:48.483Z,11.60
2023-03-15T17:33:17.620Z,11.60
2023-03-15T17:35:50.076Z,11.60
2023-03-15T17:38:21.780Z,11.60
2023-03-15T17:40:49.942Z,11.50
2023-03-15T17:43:19.199Z,11.50
2023-03-15T17:45:47.555Z,11.40
2023-03-15T17:48:15.510Z,11.30
2023-03-15T17:50:45.119Z,11.20
2023-03-15T17:53:17.972Z,11.10
2023-03-15T17:55:47.730Z,11.10
2023-03-15T17:58:20.787Z,11.10
2023-03-15T18:00:49.711Z,11.00
2023-03-15T18:03:18.267Z,11.00
2023-03-15T18:05:47.361Z,10.80
2023-03-15T18:08:18.211Z,10.80
2023-03-15T18:10:47.262Z,10.70
2023-03-15T18:13:18.202Z,10.60
2023-03-15T18:15:49.364Z,10.50
2023-03-15T18:18:17.356Z,10.40
2023-03-15T18:20:46.206Z,10.40
2023-03-15T18:23:15.198Z,10.40
2023-03-15T18:25:43.828Z,10.20
2023-03-15T18:28:11.974Z,10.40
2023-03-15T18:30:40.727Z,10.40
2023-03-15T18:33:12.399Z,10.30
2023-03-15T18:35:40.201Z,10.30
2023-03-15T18:38:07.997Z,10.30
2023-03-15T18:40:35.789Z,10.30
2023-03-15T18:43:05.419Z,10.40
2023-03-15T18:45:42.972Z,10.30
2023-03-15T18:51:12.174Z,10.30
2023-03-15T18:53:40.896Z,10.30
2023-03-15T18:56:13.756Z,10.10
2023-03-15T18:58:41.493Z,10.00
2023-03-15T19:01:10.079Z,10.00
2023-03-15T19:03:39.256Z,10.00
2023-03-15T19:06:08.943Z,9.90
2023-03-15T19:08:36.944Z,9.80
2023-03-15T19:11:06.063Z,9.70
2023-03-15T19:13:33.854Z,9.80
2023-03-15T19:16:01.773Z,9.70
2023-03-15T19:18:32.292Z,9.70
2023-03-15T19:21:02.505Z,9.60
2023-03-15T19:23:30.306Z,9.40
2023-03-15T19:25:58.111Z,9.40
2023-03-15T19:28:26.074Z,9.20
2023-03-15T19:30:53.976Z,9.20
2023-03-15T19:33:21.822Z,9.20
2023-03-15T19:35:49.863Z,9.20
2023-03-15T19:38:19.971Z,9.10
2023-03-15T19:40:47.737Z,9.00
2023-03-15T19:43:16.086Z,8.90
2023-03-15T19:45:44.145Z,8.90
2023-03-15T19:48:11.899Z,8.90
2023-03-15T19:50:39.707Z,9.00
2023-03-15T19:53:07.584Z,9.00
2023-03-15T19:55:36.787Z,9.00
2023-03-15T19:58:05.195Z,9.10
2023-03-15T20:00:33.029Z,9.00
2023-03-15T20:03:00.981Z,9.10
2023-03-15T20:05:28.856Z,9.10
2023-03-15T20:07:56.577Z,9.00
2023-03-15T20:10:24.601Z,9.00
2023-03-15T20:12:58.905Z,8.80
2023-03-15T20:15:29.304Z,8.80
2023-03-15T20:17:57.318Z,8.90
2023-03-15T20:20:25.303Z,8.90
2023-03-15T20:22:53.266Z,8.70
2023-03-15T20:25:21.815Z,8.60
2023-03-15T20:27:49.825Z,8.60
2023-03-15T20:30:19.956Z,8.60
2023-03-15T20:32:48.147Z,8.60
2023-03-15T20:35:16.228Z,8.40
2023-03-15T20:37:44.068Z,8.60
2023-03-15T20:40:14.382Z,8.40
2023-03-15T20:42:42.277Z,8.40
2023-03-15T20:45:12.330Z,8.40
2023-03-15T20:47:42.971Z,8.40
2023-03-15T20:50:13.088Z,8.30
2023-03-15T20:52:42.565Z,8.30
2023-03-15T20:55:11.211Z,8.30
2023-03-15T20:57:41.254Z,8.00
2023-03-15T21:00:12.487Z,8.10
2023-03-15T21:02:41.782Z,8.00
2023-03-15T21:05:10.211Z,8.00
2023-03-15T21:07:38.131Z,7.90
2023-03-15T21:10:07.122Z,8.00
2023-03-15T21:12:35.005Z,7.70
2023-03-15T21:15:03.799Z,7.80
2023-03-15T21:17:31.604Z,7.80
2023-03-15T21:20:01.017Z,7.70
2023-03-15T21:22:29.149Z,7.80
2023-03-15T21:24:56.957Z,7.80
2023-03-15T21:27:26.296Z,7.80
2023-03-15T21:29:54.595Z,7.80
2023-03-15T21:32:22.901Z,7.70
2023-03-15T21:34:50.797Z,7.70
2023-03-15T21:37:20.375Z,7.40
2023-03-15T21:39:48.218Z,7.60
2023-03-15T21:42:16.078Z,7.70
2023-03-15T21:44:43.896Z,7.60
2023-03-15T21:47:11.623Z,7.70
2023-03-15T21:49:44.581Z,7.60
2023-03-15T21:52:12.533Z,7.50
2023-03-15T21:54:42.070Z,7.50
2023-03-15T21:57:10.103Z,7.10
2023-03-15T21:59:38.122Z,7.30
2023-03-15T22:02:08.068Z,7.40
2023-03-15T22:04:36.099Z,7.30
2023-03-15T22:07:04.079Z,7.40
2023-03-15T22:09:32.091Z,7.30
2023-03-15T22:12:01.492Z,7.20
2023-03-15T22:14:29.460Z,7.40
2023-03-15T22:16:57.408Z,7.50
2023-03-15T22:19:25.425Z,6.90
2023-03-15T22:21:53.440Z,7.10
2023-03-15T22:24:21.327Z,6.90
2023-03-15T22:26:50.504Z,7.00
2023-03-15T22:29:20.353Z,7.00
2023-03-15T22:31:48.538Z,7.10
2023-03-15T22:34:16.814Z,6.90
2023-03-15T22:36:44.725Z,7.00
2023-03-15T22:39:12.948Z,7.00
2023-03-15T22:41:40.856Z,6.90
2023-03-15T22:44:08.745Z,7.00
2023-03-15T22:46:38.323Z,6.90
2023-03-15T22:49:06.341Z,6.90
2023-03-15T22:51:34.784Z,6.60
2023-03-15T22:54:03.296Z,6.90
2023-03-15T22:56:31.494Z,6.50
2023-03-15T22:58:59.559Z,6.80
2023-03-15T23:01:27.549Z,6.90
2023-03-15T23:03:58.037Z,7.00
2023-03-15T23:06:26.157Z,6.90
2023-03-15T23:08:54.213Z,7.00
2023-03-15T23:11:22.398Z,7.00
2023-03-15T23:13:50.437Z,7.10
2023-03-15T23:16:19.028Z,6.90
2023-03-15T23:18:49.220Z,7.00
2023-03-15T23:21:18.607Z,6.90
2023-03-15T23:23:46.645Z,6.80
2023-03-15T23:26:16.718Z,6.70
2023-03-15T23:28:44.671Z,6.60
2023-03-15T23:31:12.494Z,6.60
2023-03-15T23:33:40.308Z,6.70
2023-03-15T23:36:08.941Z,6.70
2023-03-15T23:38:38.327Z,6.60
2023-03-15T23:41:07.011Z,6.70
2023-03-15T23:43:35.038Z,6.60
2023-03-15T23:46:04.802Z,6.70
2023-03-15T23:48:35.263Z,6.50
2023-03-15T23:51:04.344Z,6.60
2023-03-15T23:53:32.747Z,6.60
2023-03-15T23:56:02.564Z,6.60
2023-03-15T23:58:30.635Z,6.60
